createdAt,value
2023-08-07T00:03:26.118Z,99877.00
2023-08-07T00:08:33.056Z,99859.47
2023-08-07T00:13:40.089Z,99868.13
2023-08-07T00:18:44.945Z,99864.06
2023-08-07T00:23:50.114Z,99854.91
2023-08-07T00:28:54.987Z,99846.31
2023-08-07T00:34:01.500Z,99826.38
2023-08-07T00:39:07.289Z,99815.84
2023-08-07T00:44:17.486Z,99826.41
2023-08-07T00:49:23.126Z,99839.63
2023-08-07T00:54:28.990Z,99836.13
2023-08-07T00:59:34.026Z,99836.66
2023-08-07T01:04:39.772Z,99855.56
2023-08-07T01:09:45.125Z,99822.88
2023-08-07T01:15:05.243Z,99825.06
2023-08-07T01:20:11.002Z,99829.97
2023-08-07T01:25:16.218Z,99817.53
2023-08-07T01:30:30.851Z,99816.75
2023-08-07T01:35:42.533Z,99825.16
2023-08-07T01:40:49.179Z,99822.44
2023-08-07T01:45:54.049Z,99839.47
2023-08-07T01:50:59.059Z,99847.59
2023-08-07T01:56:04.192Z,99851.34
2023-08-07T02:01:09.921Z,99847.91
2023-08-07T02:06:14.942Z,99864.38
2023-08-07T02:11:19.343Z,99860.59
2023-08-07T02:16:24.317Z,99860.59
2023-08-07T02:21:29.332Z,99853.56
2023-08-07T02:26:34.380Z,99844.91
2023-08-07T02:31:39.577Z,99835.47
2023-08-07T02:36:44.784Z,99832.19
2023-08-07T02:41:51.319Z,99829.75
2023-08-07T02:46:56.473Z,99821.13
2023-08-07T02:52:01.705Z,99824.94
2023-08-07T02:57:07.174Z,99818.94
2023-08-07T03:02:12.052Z,99815.44
2023-08-07T03:07:17.958Z,99833.84
2023-08-07T03:12:22.725Z,99809.78
2023-08-07T03:17:27.768Z,99794.38
2023-08-07T03:22:32.874Z,99788.16
2023-08-07T03:27:38.319Z,99786.28
2023-08-07T03:32:44.364Z,99788.16
2023-08-07T03:37:50.710Z,99785.44
2023-08-07T03:42:55.645Z,99791.94
2023-08-07T03:48:01.419Z,99778.44
2023-08-07T03:53:09.546Z,99784.63
2023-08-07T03:58:20.298Z,99782.75
2023-08-07T04:03:24.868Z,99787.88
2023-08-07T04:08:29.812Z,99790.84
2023-08-07T04:13:35.119Z,99779.50
2023-08-07T04:18:40.133Z,99774.63
2023-08-07T04:23:45.273Z,99787.59
2023-08-07T04:28:51.266Z,99767.31
2023-08-07T04:33:57.197Z,99755.69
2023-08-07T04:39:02.227Z,99751.06
2023-08-07T04:44:08.609Z,99750.53
2023-08-07T04:49:13.495Z,99752.69
2023-08-07T04:54:19.835Z,99749.75
2023-08-07T04:59:26.117Z,99748.91
2023-08-07T05:04:32.259Z,99751.88
2023-08-07T05:09:37.242Z,99738.66
2023-08-07T05:14:43.213Z,99733.78
2023-08-07T05:19:48.069Z,99733.47
2023-08-07T05:24:53.051Z,99739.09
2023-08-07T05:29:58.101Z,99736.94
2023-08-07T05:35:04.045Z,99719.84
2023-08-07T05:40:10.051Z,99711.72
2023-08-07T05:45:15.156Z,99707.34
2023-08-07T05:50:22.380Z,99708.44
2023-08-07T05:55:27.749Z,99709.75
2023-08-07T06:00:33.760Z,99695.13
2023-08-07T06:05:38.949Z,99696.19
2023-08-07T06:10:43.890Z,99703.78
2023-08-07T06:15:48.986Z,99682.63
2023-08-07T06:20:54.059Z,99676.16
2023-08-07T06:25:59.975Z,99678.56
2023-08-07T06:31:06.033Z,99680.47
2023-08-07T06:36:11.625Z,99674.28
2023-08-07T06:41:16.402Z,99669.41
2023-08-07T06:46:27.776Z,99680.78
2023-08-07T06:51:32.911Z,99700.59
2023-08-07T06:56:39.892Z,99677.06
2023-08-07T07:01:44.722Z,99664.09
2023-08-07T07:06:50.424Z,99665.47
2023-08-07T07:11:56.015Z,99661.16
2023-08-07T07:17:01.754Z,99669.59
2023-08-07T07:22:07.181Z,99646.88
2023-08-07T07:27:12.453Z,99659.88
2023-08-07T07:32:17.471Z,99649.03
2023-08-07T07:37:22.473Z,99646.88
2023-08-07T07:42:27.967Z,99641.53
2023-08-07T07:47:32.953Z,99649.34
2023-08-07T07:52:38.195Z,99647.75
2023-08-07T07:57:43.384Z,99643.69
2023-08-07T08:02:48.830Z,99666.44
2023-08-07T08:07:54.347Z,99652.13
2023-08-07T08:13:00.399Z,99622.63
2023-08-07T08:18:05.440Z,99619.69
2023-08-07T08:23:11.202Z,99610.22
2023-08-07T08:28:16.342Z,99600.50
2023-08-07T08:33:21.407Z,99595.38
2023-08-07T08:38:27.728Z,99588.06
2023-08-07T08:43:38.479Z,99584.84
2023-08-07T08:48:47.027Z,99581.63
2023-08-07T08:53:53.543Z,99571.88
2023-08-07T08:58:58.520Z,99567.84
2023-08-07T09:04:07.332Z,99557.31
2023-08-07T09:09:15.453Z,99545.97
2023-08-07T09:14:25.283Z,99549.75
2023-08-07T09:19:30.414Z,99551.13
2023-08-07T09:24:35.348Z,99543.28
2023-08-07T09:29:44.338Z,99544.34
2023-08-07T09:34:50.087Z,99532.50
2023-08-07T09:39:55.605Z,99529.00
2023-08-07T09:45:01.382Z,99531.97
2023-08-07T09:50:06.885Z,99523.31
2023-08-07T09:55:11.820Z,99564.94
2023-08-07T10:00:17.830Z,99522.25
2023-08-07T10:05:23.030Z,99523.88
2023-08-07T10:10:29.997Z,99530.34
2023-08-07T10:15:37.175Z,99555.22
2023-08-07T10:20:44.761Z,99526.31
2023-08-07T10:25:53.565Z,99549.81
2023-08-07T10:31:00.160Z,99534.16
2023-08-07T10:36:12.668Z,99536.00
2023-08-07T10:41:18.140Z,99532.00
2023-08-07T10:46:25.488Z,99529.56
2023-08-07T10:51:34.241Z,99535.22
2023-08-07T10:56:39.827Z,99530.09
2023-08-07T11:01:46.793Z,99531.47
2023-08-07T11:06:51.879Z,99550.66
2023-08-07T11:11:57.139Z,99554.16
2023-08-07T11:17:02.072Z,99553.63
2023-08-07T11:22:07.651Z,99606.84
2023-08-07T11:27:12.618Z,99653.31
2023-08-07T11:32:18.829Z,99712.47
2023-08-07T11:37:23.544Z,99729.75
2023-08-07T11:42:31.589Z,99720.03
2023-08-07T11:47:36.761Z,99761.09
2023-08-07T11:52:42.464Z,99739.19
2023-08-07T11:57:50.176Z,99693.03
2023-08-07T12:02:54.986Z,99644.94
2023-08-07T12:08:00.174Z,99667.66
2023-08-07T12:13:07.169Z,99657.38
2023-08-07T12:18:13.319Z,99647.94
2023-08-07T12:23:19.593Z,99656.31
2023-08-07T12:28:25.094Z,99672.50
2023-08-07T12:33:32.302Z,99697.06
2023-08-07T12:38:37.405Z,99750.50
2023-08-07T12:43:42.509Z,99706.50
2023-08-07T12:48:47.609Z,99697.84
2023-08-07T12:53:53.551Z,99703.81
2023-08-07T12:58:58.526Z,99695.66
2023-08-07T13:04:02.706Z,99695.94
2023-08-07T13:09:08.263Z,99719.94
2023-08-07T13:14:13.441Z,99712.91
2023-08-07T13:19:18.655Z,99711.56
2023-08-07T13:24:23.446Z,99690.50
2023-08-07T13:29:31.889Z,99706.97
2023-08-07T13:34:37.078Z,99697.50
2023-08-07T13:39:43.065Z,99703.47
2023-08-07T13:44:48.822Z,99729.38
2023-08-07T13:49:54.169Z,99722.38
2023-08-07T13:54:59.140Z,99710.75
2023-08-07T14:00:04.864Z,99705.91
2023-08-07T14:05:10.218Z,99724.22
2023-08-07T14:10:17.230Z,99729.06
2023-08-07T14:15:22.961Z,99755.53
2023-08-07T14:20:29.215Z,99669.44
2023-08-07T14:25:34.039Z,99665.44
2023-08-07T14:30:39.178Z,99660.03
2023-08-07T14:35:45.877Z,99665.69
2023-08-07T14:40:53.912Z,99661.09
2023-08-07T14:45:59.128Z,99660.31
2023-08-07T14:51:05.744Z,99672.41
2023-08-07T14:56:11.214Z,99675.66
2023-08-07T15:01:16.436Z,99682.69
2023-08-07T15:06:21.458Z,99650.56
2023-08-07T15:11:31.366Z,99654.63
2023-08-07T15:16:38.378Z,99682.16
2023-08-07T15:21:44.662Z,99697.50
2023-08-07T15:26:49.688Z,99703.47
2023-08-07T15:31:54.846Z,99690.78
2023-08-07T15:37:02.019Z,99630.88
2023-08-07T15:42:07.832Z,99636.28
2023-08-07T15:47:13.314Z,99651.38
2023-08-07T15:52:20.490Z,99660.81
2023-08-07T15:57:26.778Z,99692.13
2023-08-07T16:02:32.103Z,99710.75
2023-08-07T16:07:38.586Z,99716.41
2023-08-07T16:12:44.671Z,99693.50
2023-08-07T16:17:50.013Z,99714.00
2023-08-07T16:22:56.289Z,99711.03
2023-08-07T16:28:01.241Z,99680.28
2023-08-07T16:33:06.556Z,99686.47
2023-08-07T16:38:11.758Z,99668.13
2023-08-07T16:43:16.720Z,99686.72
2023-08-07T16:48:21.557Z,99683.75
2023-08-07T16:53:26.639Z,99698.34
2023-08-07T16:58:32.455Z,99686.72
2023-08-07T17:03:37.641Z,99681.88
2023-08-07T17:08:43.123Z,99692.94
2023-08-07T17:13:48.308Z,99697.25
2023-08-07T17:18:53.893Z,99698.91
2023-08-07T17:23:59.025Z,99699.69
2023-08-07T17:29:04.046Z,99687.84
2023-08-07T17:34:09.017Z,99687.31
2023-08-07T17:39:13.767Z,99704.81
2023-08-07T17:44:20.071Z,99690.78
2023-08-07T17:49:25.160Z,99686.19
2023-08-07T17:54:30.027Z,99669.19
2023-08-07T17:59:34.350Z,99672.97
2023-08-07T18:04:40.091Z,99682.69
2023-08-07T18:09:45.056Z,99693.47
2023-08-07T18:14:51.969Z,99684.31
2023-08-07T18:19:57.170Z,99701.56
2023-08-07T18:25:01.961Z,99718.28
2023-08-07T18:30:09.223Z,99724.78
2023-08-07T18:35:14.217Z,99726.63
2023-08-07T18:40:19.331Z,99719.34
2023-08-07T18:45:24.189Z,99743.63
2023-08-07T18:50:29.145Z,99734.72
2023-08-07T18:55:35.579Z,99735.56
2023-08-07T19:00:40.548Z,99738.81
2023-08-07T19:05:47.240Z,99739.88
2023-08-07T19:10:52.495Z,99749.06
2023-08-07T19:15:58.889Z,99742.59
2023-08-07T19:21:04.181Z,99745.81
2023-08-07T19:26:09.041Z,99762.28
2023-08-07T19:31:14.933Z,99736.13
2023-08-07T19:36:19.904Z,99749.06
2023-08-07T19:41:24.658Z,99778.75
2023-08-07T19:46:29.772Z,99760.69
2023-08-07T19:51:35.429Z,99761.72
2023-08-07T19:56:40.482Z,99753.63
2023-08-07T20:01:45.175Z,99760.38
2023-08-07T20:06:51.206Z,99747.44
2023-08-07T20:11:56.720Z,99751.50
2023-08-07T20:17:02.113Z,99744.25
2023-08-07T20:22:08.773Z,99756.34
2023-08-07T20:27:13.730Z,99754.47
2023-08-07T20:32:19.072Z,99755.53
2023-08-07T20:37:27.099Z,99746.09
2023-08-07T20:42:32.276Z,99748.78
2023-08-07T20:47:38.464Z,99743.66
2023-08-07T20:52:43.756Z,99745.78
2023-08-07T20:57:48.584Z,99765.22
2023-08-07T21:02:53.389Z,99768.47
2023-08-07T21:07:58.575Z,99764.13
2023-08-07T21:13:03.446Z,99756.56
2023-08-07T21:18:08.732Z,99759.56
2023-08-07T21:23:17.900Z,99770.69
2023-08-07T21:28:23.415Z,99773.38
2023-08-07T21:33:28.894Z,99783.34
2023-08-07T21:38:33.039Z,99771.75
2023-08-07T21:43:39.086Z,99776.34
2023-08-07T21:48:44.121Z,99780.38
2023-08-07T21:53:50.615Z,99778.47
2023-08-07T21:58:56.129Z,99775.50
2023-08-07T22:04:01.058Z,99780.91
2023-08-07T22:09:07.071Z,99772.56
2023-08-07T22:14:12.164Z,99768.53
2023-08-07T22:19:17.284Z,99780.94
2023-08-07T22:24:22.714Z,99779.59
2023-08-07T22:29:27.538Z,99787.97
2023-08-07T22:34:32.278Z,99787.75
2023-08-07T22:39:37.219Z,99796.66
2023-08-07T22:44:42.073Z,99786.94
2023-08-07T22:49:47.142Z,99797.72
2023-08-07T22:54:52.080Z,99789.91
2023-08-07T22:59:58.161Z,99799.09
2023-08-07T23:05:03.235Z,99805.84
2023-08-07T23:10:09.392Z,99793.97
2023-08-07T23:15:14.654Z,99808.00
2023-08-07T23:20:20.227Z,99818.03
2023-08-07T23:25:25.196Z,99830.69
2023-08-07T23:30:32.145Z,99832.91
2023-08-07T23:35:37.203Z,99843.19
2023-08-07T23:40:43.898Z,99854.53
2023-08-07T23:45:48.762Z,99829.13
2023-08-07T23:50:55.057Z,99836.97
2023-08-07T23:56:02.052Z,99819.19
